sensor_id;sensor_type;location;lat;lon;timestamp;P1;durP1;ratioP1;P2;durP2;ratioP2
15327;SDS011;7764;51.430;6.840;2023-04-19T00:01:00;24.27;;;18.90;;
15327;SDS011;7764;51.430;6.840;2023-04-19T00:03:28;26.27;;;19.73;;
15327;SDS011;7764;51.430;6.840;2023-04-19T00:05:55;24.90;;;18.00;;
15327;SDS011;7764;51.430;6.840;2023-04-19T00:08:23;24.73;;;18.53;;
15327;SDS011;7764;51.430;6.840;2023-04-19T00:10:50;25.90;;;20.07;;
15327;SDS011;7764;51.430;6.840;2023-04-19T00:13:17;24.93;;;20.03;;
15327;SDS011;7764;51.430;6.840;2023-04-19T00:15:44;25.90;;;19.73;;
15327;SDS011;7764;51.430;6.840;2023-04-19T00:18:12;24.70;;;19.23;;
15327;SDS011;7764;51.430;6.840;2023-04-19T00:20:39;27.67;;;20.37;;
15327;SDS011;7764;51.430;6.840;2023-04-19T00:23:06;24.30;;;19.17;;
15327;SDS011;7764;51.430;6.840;2023-04-19T00:25:33;27.10;;;20.37;;
15327;SDS011;7764;51.430;6.840;2023-04-19T00:28:00;25.50;;;19.37;;
15327;SDS011;7764;51.430;6.840;2023-04-19T00:30:27;25.97;;;19.77;;
15327;SDS011;7764;51.430;6.840;2023-04-19T00:32:54;25.13;;;19.77;;
15327;SDS011;7764;51.430;6.840;2023-04-19T00:35:22;25.27;;;18.80;;
15327;SDS011;7764;51.430;6.840;2023-04-19T00:37:49;26.90;;;19.90;;
15327;SDS011;7764;51.430;6.840;2023-04-19T00:40:16;28.47;;;19.60;;
15327;SDS011;7764;51.430;6.840;2023-04-19T00:42:43;25.03;;;19.33;;
15327;SDS011;7764;51.430;6.840;2023-04-19T00:45:10;28.80;;;21.23;;
15327;SDS011;7764;51.430;6.840;2023-04-19T00:47:37;26.83;;;20.10;;
15327;SDS011;7764;51.430;6.840;2023-04-19T00:50:05;27.73;;;19.23;;
15327;SDS011;7764;51.430;6.840;2023-04-19T00:52:34;28.73;;;20.73;;
15327;SDS011;7764;51.430;6.840;2023-04-19T00:55:01;28.43;;;19.83;;
15327;SDS011;7764;51.430;6.840;2023-04-19T00:57:29;28.40;;;21.00;;
15327;SDS011;7764;51.430;6.840;2023-04-19T00:59:56;26.40;;;19.73;;
15327;SDS011;7764;51.430;6.840;2023-04-19T01:02:23;26.63;;;19.60;;
15327;SDS011;7764;51.430;6.840;2023-04-19T01:04:52;25.93;;;19.90;;
15327;SDS011;7764;51.430;6.840;2023-04-19T01:07:19;28.03;;;19.63;;
15327;SDS011;7764;51.430;6.840;2023-04-19T01:09:48;25.57;;;20.40;;
15327;SDS011;7764;51.430;6.840;2023-04-19T01:12:15;24.83;;;18.20;;
15327;SDS011;7764;51.430;6.840;2023-04-19T01:14:41;32.93;;;19.50;;
15327;SDS011;7764;51.430;6.840;2023-04-19T01:17:09;24.90;;;18.57;;
15327;SDS011;7764;51.430;6.840;2023-04-19T01:19:37;25.87;;;18.93;;
15327;SDS011;7764;51.430;6.840;2023-04-19T01:22:04;25.77;;;18.77;;
15327;SDS011;7764;51.430;6.840;2023-04-19T01:24:32;26.07;;;19.23;;
15327;SDS011;7764;51.430;6.840;2023-04-19T01:26:59;23.47;;;18.47;;
15327;SDS011;7764;51.430;6.840;2023-04-19T01:29:27;24.10;;;18.33;;
15327;SDS011;7764;51.430;6.840;2023-04-19T01:31:54;25.53;;;18.73;;
15327;SDS011;7764;51.430;6.840;2023-04-19T01:34:21;26.20;;;18.40;;
15327;SDS011;7764;51.430;6.840;2023-04-19T01:36:48;24.83;;;18.97;;
15327;SDS011;7764;51.430;6.840;2023-04-19T01:39:15;25.30;;;18.60;;
15327;SDS011;7764;51.430;6.840;2023-04-19T01:41:43;25.60;;;19.60;;
15327;SDS011;7764;51.430;6.840;2023-04-19T01:44:10;25.33;;;18.13;;
15327;SDS011;7764;51.430;6.840;2023-04-19T01:46:37;25.77;;;19.80;;
15327;SDS011;7764;51.430;6.840;2023-04-19T01:49:06;26.53;;;19.30;;
15327;SDS011;7764;51.430;6.840;2023-04-19T01:51:33;24.57;;;18.60;;
15327;SDS011;7764;51.430;6.840;2023-04-19T01:54:00;26.77;;;19.20;;
15327;SDS011;7764;51.430;6.840;2023-04-19T01:56:27;27.23;;;19.70;;
15327;SDS011;7764;51.430;6.840;2023-04-19T01:58:55;27.47;;;19.53;;
15327;SDS011;7764;51.430;6.840;2023-04-19T02:01:22;27.20;;;19.83;;
15327;SDS011;7764;51.430;6.840;2023-04-19T02:03:49;26.43;;;18.37;;
15327;SDS011;7764;51.430;6.840;2023-04-19T02:06:16;26.53;;;19.13;;
15327;SDS011;7764;51.430;6.840;2023-04-19T02:08:43;26.40;;;18.77;;
15327;SDS011;7764;51.430;6.840;2023-04-19T02:11:10;25.20;;;19.23;;
15327;SDS011;7764;51.430;6.840;2023-04-19T02:13:39;27.23;;;19.03;;
15327;SDS011;7764;51.430;6.840;2023-04-19T02:16:07;27.27;;;19.33;;
15327;SDS011;7764;51.430;6.840;2023-04-19T02:18:35;26.03;;;19.60;;
15327;SDS011;7764;51.430;6.840;2023-04-19T02:21:03;26.13;;;18.87;;
15327;SDS011;7764;51.430;6.840;2023-04-19T02:23:30;31.47;;;19.83;;
15327;SDS011;7764;51.430;6.840;2023-04-19T02:25:57;30.90;;;19.97;;
15327;SDS011;7764;51.430;6.840;2023-04-19T02:28:26;28.57;;;19.63;;
15327;SDS011;7764;51.430;6.840;2023-04-19T02:30:53;26.47;;;19.03;;
15327;SDS011;7764;51.430;6.840;2023-04-19T02:33:22;26.07;;;19.50;;
15327;SDS011;7764;51.430;6.840;2023-04-19T02:35:48;24.10;;;17.33;;
15327;SDS011;7764;51.430;6.840;2023-04-19T02:38:15;25.23;;;18.27;;
15327;SDS011;7764;51.430;6.840;2023-04-19T02:40:42;25.70;;;18.57;;
15327;SDS011;7764;51.430;6.840;2023-04-19T02:43:09;25.70;;;17.03;;
15327;SDS011;7764;51.430;6.840;2023-04-19T02:45:36;24.27;;;16.70;;
15327;SDS011;7764;51.430;6.840;2023-04-19T02:48:03;22.87;;;16.13;;
15327;SDS011;7764;51.430;6.840;2023-04-19T02:50:31;22.73;;;16.77;;
15327;SDS011;7764;51.430;6.840;2023-04-19T02:52:58;24.30;;;16.73;;
15327;SDS011;7764;51.430;6.840;2023-04-19T02:55:25;22.47;;;16.30;;
15327;SDS011;7764;51.430;6.840;2023-04-19T02:57:52;23.20;;;15.77;;
15327;SDS011;7764;51.430;6.840;2023-04-19T03:00:19;21.33;;;15.07;;
15327;SDS011;7764;51.430;6.840;2023-04-19T03:02:45;20.33;;;14.27;;
15327;SDS011;7764;51.430;6.840;2023-04-19T03:05:12;19.67;;;14.40;;
15327;SDS011;7764;51.430;6.840;2023-04-19T03:07:40;21.27;;;14.07;;
15327;SDS011;7764;51.430;6.840;2023-04-19T03:10:08;19.37;;;13.33;;
15327;SDS011;7764;51.430;6.840;2023-04-19T03:12:35;36.13;;;24.40;;
15327;SDS011;7764;51.430;6.840;2023-04-19T03:15:02;18.43;;;13.33;;
15327;SDS011;7764;51.430;6.840;2023-04-19T03:17:29;19.33;;;11.93;;
15327;SDS011;7764;51.430;6.840;2023-04-19T03:19:56;19.03;;;12.73;;
15327;SDS011;7764;51.430;6.840;2023-04-19T03:22:23;16.90;;;11.87;;
15327;SDS011;7764;51.430;6.840;2023-04-19T03:24:51;17.50;;;12.87;;
15327;SDS011;7764;51.430;6.840;2023-04-19T03:27:18;21.23;;;12.67;;
15327;SDS011;7764;51.430;6.840;2023-04-19T03:29:45;16.23;;;11.93;;
15327;SDS011;7764;51.430;6.840;2023-04-19T03:32:11;16.07;;;11.60;;
15327;SDS011;7764;51.430;6.840;2023-04-19T03:34:38;16.87;;;12.33;;
15327;SDS011;7764;51.430;6.840;2023-04-19T03:37:05;17.47;;;11.93;;
15327;SDS011;7764;51.430;6.840;2023-04-19T03:39:32;16.87;;;11.83;;
15327;SDS011;7764;51.430;6.840;2023-04-19T03:42:00;14.60;;;10.77;;
15327;SDS011;7764;51.430;6.840;2023-04-19T03:44:27;16.90;;;11.80;;
15327;SDS011;7764;51.430;6.840;2023-04-19T03:46:56;15.13;;;10.53;;
15327;SDS011;7764;51.430;6.840;2023-04-19T03:49:23;14.57;;;10.90;;
15327;SDS011;7764;51.430;6.840;2023-04-19T03:51:49;14.57;;;10.20;;
15327;SDS011;7764;51.430;6.840;2023-04-19T03:54:16;14.53;;;9.80;;
15327;SDS011;7764;51.430;6.840;2023-04-19T03:56:43;14.83;;;9.70;;
15327;SDS011;7764;51.430;6.840;2023-04-19T03:59:11;16.63;;;9.87;;
15327;SDS011;7764;51.430;6.840;2023-04-19T04:01:38;14.87;;;10.17;;
15327;SDS011;7764;51.430;6.840;2023-04-19T04:04:06;15.90;;;10.40;;
15327;SDS011;7764;51.430;6.840;2023-04-19T04:06:33;16.57;;;10.00;;
15327;SDS011;7764;51.430;6.840;2023-04-19T04:08:59;16.20;;;9.87;;
15327;SDS011;7764;51.430;6.840;2023-04-19T04:11:26;17.43;;;9.53;;
15327;SDS011;7764;51.430;6.840;2023-04-19T04:13:54;13.13;;;8.70;;
15327;SDS011;7764;51.430;6.840;2023-04-19T04:16:22;12.43;;;9.10;;
15327;SDS011;7764;51.430;6.840;2023-04-19T04:18:49;12.70;;;8.73;;
15327;SDS011;7764;51.430;6.840;2023-04-19T04:21:16;14.17;;;9.30;;
15327;SDS011;7764;51.430;6.840;2023-04-19T04:23:43;10.67;;;7.80;;
15327;SDS011;7764;51.430;6.840;2023-04-19T04:26:11;12.33;;;8.27;;
15327;SDS011;7764;51.430;6.840;2023-04-19T04:28:38;12.40;;;8.20;;
15327;SDS011;7764;51.430;6.840;2023-04-19T04:31:05;10.43;;;7.63;;
15327;SDS011;7764;51.430;6.840;2023-04-19T04:33:35;12.37;;;7.70;;
15327;SDS011;7764;51.430;6.840;2023-04-19T04:36:02;10.70;;;7.50;;
15327;SDS011;7764;51.430;6.840;2023-04-19T04:38:31;13.73;;;8.27;;
15327;SDS011;7764;51.430;6.840;2023-04-19T04:40:58;10.80;;;7.60;;
15327;SDS011;7764;51.430;6.840;2023-04-19T04:43:25;11.73;;;8.03;;
15327;SDS011;7764;51.430;6.840;2023-04-19T04:45:53;14.40;;;8.23;;
15327;SDS011;7764;51.430;6.840;2023-04-19T04:48:21;13.30;;;8.53;;
15327;SDS011;7764;51.430;6.840;2023-04-19T04:50:50;14.97;;;8.17;;
15327;SDS011;7764;51.430;6.840;2023-04-19T04:53:16;11.83;;;8.00;;
15327;SDS011;7764;51.430;6.840;2023-04-19T04:55:44;13.17;;;8.23;;
15327;SDS011;7764;51.430;6.840;2023-04-19T04:58:11;13.27;;;7.97;;
15327;SDS011;7764;51.430;6.840;2023-04-19T05:00:37;11.87;;;7.93;;
15327;SDS011;7764;51.430;6.840;2023-04-19T05:03:04;11.07;;;7.50;;
15327;SDS011;7764;51.430;6.840;2023-04-19T05:05:31;10.77;;;7.50;;
15327;SDS011;7764;51.430;6.840;2023-04-19T05:08:00;11.67;;;7.43;;
15327;SDS011;7764;51.430;6.840;2023-04-19T05:10:27;10.90;;;7.40;;
15327;SDS011;7764;51.430;6.840;2023-04-19T05:12:53;11.53;;;8.00;;
15327;SDS011;7764;51.430;6.840;2023-04-19T05:15:21;13.13;;;8.33;;
15327;SDS011;7764;51.430;6.840;2023-04-19T05:17:48;13.70;;;8.07;;
15327;SDS011;7764;51.430;6.840;2023-04-19T05:20:14;13.57;;;8.70;;
15327;SDS011;7764;51.430;6.840;2023-04-19T05:22:42;13.67;;;8.30;;
15327;SDS011;7764;51.430;6.840;2023-04-19T05:25:10;13.80;;;8.17;;
15327;SDS011;7764;51.430;6.840;2023-04-19T05:27:37;13.27;;;9.03;;
15327;SDS011;7764;51.430;6.840;2023-04-19T05:30:04;18.17;;;12.63;;
15327;SDS011;7764;51.430;6.840;2023-04-19T05:32:32;13.03;;;9.17;;
15327;SDS011;7764;51.430;6.840;2023-04-19T05:34:59;14.87;;;9.17;;
15327;SDS011;7764;51.430;6.840;2023-04-19T05:37:25;13.27;;;9.40;;
15327;SDS011;7764;51.430;6.840;2023-04-19T05:39:52;12.70;;;8.93;;
15327;SDS011;7764;51.430;6.840;2023-04-19T05:42:20;15.00;;;9.10;;
15327;SDS011;7764;51.430;6.840;2023-04-19T05:44:47;14.37;;;9.17;;
15327;SDS011;7764;51.430;6.840;2023-04-19T05:47:14;13.13;;;9.10;;
15327;SDS011;7764;51.430;6.840;2023-04-19T05:49:41;12.87;;;8.90;;
15327;SDS011;7764;51.430;6.840;2023-04-19T05:52:08;13.07;;;8.83;;
15327;SDS011;7764;51.430;6.840;2023-04-19T05:54:35;13.17;;;9.00;;
15327;SDS011;7764;51.430;6.840;2023-04-19T05:57:02;15.40;;;8.70;;
15327;SDS011;7764;51.430;6.840;2023-04-19T05:59:30;12.10;;;8.33;;
15327;SDS011;7764;51.430;6.840;2023-04-19T06:01:57;15.20;;;8.63;;
15327;SDS011;7764;51.430;6.840;2023-04-19T06:04:25;11.80;;;8.57;;
15327;SDS011;7764;51.430;6.840;2023-04-19T06:06:52;11.80;;;8.20;;
15327;SDS011;7764;51.430;6.840;2023-04-19T06:09:18;12.87;;;8.87;;
15327;SDS011;7764;51.430;6.840;2023-04-19T06:11:45;14.57;;;9.70;;
15327;SDS011;7764;51.430;6.840;2023-04-19T06:14:12;14.10;;;8.53;;
15327;SDS011;7764;51.430;6.840;2023-04-19T06:16:40;14.40;;;8.50;;
15327;SDS011;7764;51.430;6.840;2023-04-19T06:19:07;15.33;;;9.20;;
15327;SDS011;7764;51.430;6.840;2023-04-19T06:21:34;14.73;;;9.20;;
15327;SDS011;7764;51.430;6.840;2023-04-19T06:24:01;15.33;;;8.40;;
15327;SDS011;7764;51.430;6.840;2023-04-19T06:26:28;12.23;;;8.10;;
15327;SDS011;7764;51.430;6.840;2023-04-19T06:28:55;13.37;;;8.47;;
15327;SDS011;7764;51.430;6.840;2023-04-19T06:31:22;13.73;;;8.00;;
15327;SDS011;7764;51.430;6.840;2023-04-19T06:33:50;11.43;;;7.77;;
15327;SDS011;7764;51.430;6.840;2023-04-19T06:36:17;15.33;;;8.00;;
15327;SDS011;7764;51.430;6.840;2023-04-19T06:38:44;12.27;;;7.60;;
15327;SDS011;7764;51.430;6.840;2023-04-19T06:41:11;11.60;;;7.70;;
15327;SDS011;7764;51.430;6.840;2023-04-19T06:43:38;12.07;;;7.43;;
15327;SDS011;7764;51.430;6.840;2023-04-19T06:46:06;11.80;;;6.50;;
15327;SDS011;7764;51.430;6.840;2023-04-19T06:48:34;11.03;;;7.00;;
15327;SDS011;7764;51.430;6.840;2023-04-19T06:51:02;12.33;;;7.60;;
15327;SDS011;7764;51.430;6.840;2023-04-19T06:53:29;12.97;;;6.67;;
15327;SDS011;7764;51.430;6.840;2023-04-19T06:55:57;14.73;;;7.67;;
15327;SDS011;7764;51.430;6.840;2023-04-19T06:58:25;12.23;;;7.10;;
15327;SDS011;7764;51.430;6.840;2023-04-19T07:00:52;14.00;;;7.00;;
15327;SDS011;7764;51.430;6.840;2023-04-19T07:03:20;13.40;;;7.30;;
15327;SDS011;7764;51.430;6.840;2023-04-19T07:05:47;12.43;;;6.93;;
15327;SDS011;7764;51.430;6.840;2023-04-19T07:08:17;11.40;;;7.37;;
15327;SDS011;7764;51.430;6.840;2023-04-19T07:10:44;10.57;;;6.57;;
15327;SDS011;7764;51.430;6.840;2023-04-19T07:13:11;12.03;;;6.97;;
15327;SDS011;7764;51.430;6.840;2023-04-19T07:15:38;10.00;;;6.90;;
15327;SDS011;7764;51.430;6.840;2023-04-19T07:18:05;11.17;;;6.80;;
15327;SDS011;7764;51.430;6.840;2023-04-19T07:20:34;10.13;;;6.93;;
15327;SDS011;7764;51.430;6.840;2023-04-19T07:23:01;12.20;;;7.10;;
15327;SDS011;7764;51.430;6.840;2023-04-19T07:25:29;10.27;;;6.83;;
15327;SDS011;7764;51.430;6.840;2023-04-19T07:27:56;12.53;;;6.30;;
15327;SDS011;7764;51.430;6.840;2023-04-19T07:30:22;10.83;;;6.10;;
15327;SDS011;7764;51.430;6.840;2023-04-19T07:32:49;13.10;;;9.80;;
15327;SDS011;7764;51.430;6.840;2023-04-19T07:35:17;12.25;;;5.97;;
15327;SDS011;7764;51.430;6.840;2023-04-19T07:37:44;10.10;;;6.70;;
15327;SDS011;7764;51.430;6.840;2023-04-19T07:40:11;12.73;;;6.27;;
15327;SDS011;7764;51.430;6.840;2023-04-19T07:42:41;11.03;;;6.60;;
15327;SDS011;7764;51.430;6.840;2023-04-19T07:45:08;10.63;;;6.03;;
15327;SDS011;7764;51.430;6.840;2023-04-19T07:47:35;10.83;;;6.03;;
15327;SDS011;7764;51.430;6.840;2023-04-19T07:50:03;10.33;;;5.93;;
15327;SDS011;7764;51.430;6.840;2023-04-19T07:52:31;13.73;;;6.17;;
15327;SDS011;7764;51.430;6.840;2023-04-19T07:54:58;10.23;;;5.80;;
15327;SDS011;7764;51.430;6.840;2023-04-19T07:57:25;11.00;;;6.17;;
15327;SDS011;7764;51.430;6.840;2023-04-19T07:59:54;12.53;;;5.80;;
15327;SDS011;7764;51.430;6.840;2023-04-19T08:02:25;10.90;;;5.77;;
15327;SDS011;7764;51.430;6.840;2023-04-19T08:04:52;10.77;;;5.90;;
15327;SDS011;7764;51.430;6.840;2023-04-19T08:07:19;9.80;;;5.50;;
15327;SDS011;7764;51.430;6.840;2023-04-19T08:09:47;8.93;;;5.33;;
15327;SDS011;7764;51.430;6.840;2023-04-19T08:12:14;8.53;;;5.50;;
15327;SDS011;7764;51.430;6.840;2023-04-19T08:14:42;8.13;;;5.60;;
15327;SDS011;7764;51.430;6.840;2023-04-19T08:17:12;10.87;;;5.83;;
15327;SDS011;7764;51.430;6.840;2023-04-19T08:19:40;9.27;;;5.50;;
15327;SDS011;7764;51.430;6.840;2023-04-19T08:22:07;10.80;;;5.70;;
15327;SDS011;7764;51.430;6.840;2023-04-19T08:24:34;8.67;;;5.27;;
15327;SDS011;7764;51.430;6.840;2023-04-19T08:27:01;9.83;;;5.60;;
15327;SDS011;7764;51.430;6.840;2023-04-19T08:29:28;11.90;;;5.20;;
15327;SDS011;7764;51.430;6.840;2023-04-19T08:31:55;11.23;;;5.50;;
15327;SDS011;7764;51.430;6.840;2023-04-19T08:34:23;11.97;;;5.40;;
15327;SDS011;7764;51.430;6.840;2023-04-19T08:36:50;9.43;;;5.20;;
15327;SDS011;7764;51.430;6.840;2023-04-19T08:39:17;12.53;;;5.43;;
15327;SDS011;7764;51.430;6.840;2023-04-19T08:41:43;8.33;;;5.23;;
15327;SDS011;7764;51.430;6.840;2023-04-19T08:44:11;13.43;;;5.00;;
15327;SDS011;7764;51.430;6.840;2023-04-19T08:46:38;10.90;;;5.53;;
15327;SDS011;7764;51.430;6.840;2023-04-19T08:49:06;13.70;;;5.00;;
15327;SDS011;7764;51.430;6.840;2023-04-19T08:51:36;8.90;;;4.90;;
15327;SDS011;7764;51.430;6.840;2023-04-19T08:54:03;9.43;;;5.13;;
15327;SDS011;7764;51.430;6.840;2023-04-19T08:56:31;10.03;;;5.00;;
15327;SDS011;7764;51.430;6.840;2023-04-19T08:58:58;9.53;;;4.67;;
15327;SDS011;7764;51.430;6.840;2023-04-19T09:01:27;9.17;;;4.73;;
15327;SDS011;7764;51.430;6.840;2023-04-19T09:03:54;8.80;;;5.00;;
15327;SDS011;7764;51.430;6.840;2023-04-19T09:06:21;9.93;;;5.00;;
15327;SDS011;7764;51.430;6.840;2023-04-19T09:08:49;9.07;;;5.13;;
15327;SDS011;7764;51.430;6.840;2023-04-19T09:11:21;10.63;;;4.80;;
15327;SDS011;7764;51.430;6.840;2023-04-19T09:14:06;9.57;;;5.13;;
15327;SDS011;7764;51.430;6.840;2023-04-19T09:16:34;8.63;;;4.83;;
15327;SDS011;7764;51.430;6.840;2023-04-19T09:19:02;10.60;;;4.87;;
15327;SDS011;7764;51.430;6.840;2023-04-19T09:21:29;8.30;;;3.93;;
15327;SDS011;7764;51.430;6.840;2023-04-19T09:23:58;12.83;;;5.13;;
15327;SDS011;7764;51.430;6.840;2023-04-19T09:26:25;12.87;;;4.90;;
15327;SDS011;7764;51.430;6.840;2023-04-19T09:28:54;10.33;;;4.60;;
15327;SDS011;7764;51.430;6.840;2023-04-19T09:31:22;7.47;;;4.53;;
15327;SDS011;7764;51.430;6.840;2023-04-19T09:33:50;7.97;;;4.23;;
15327;SDS011;7764;51.430;6.840;2023-04-19T09:36:28;8.00;;;4.00;;
15327;SDS011;7764;51.430;6.840;2023-04-19T09:38:56;6.93;;;3.73;;
15327;SDS011;7764;51.430;6.840;2023-04-19T09:41:25;7.07;;;3.57;;
15327;SDS011;7764;51.430;6.840;2023-04-19T09:43:52;7.87;;;3.80;;
15327;SDS011;7764;51.430;6.840;2023-04-19T09:46:28;9.13;;;3.63;;
15327;SDS011;7764;51.430;6.840;2023-04-19T09:49:05;4.97;;;2.63;;
15327;SDS011;7764;51.430;6.840;2023-04-19T09:51:41;9.17;;;3.17;;
15327;SDS011;7764;51.430;6.840;2023-04-19T09:54:09;4.97;;;2.43;;
15327;SDS011;7764;51.430;6.840;2023-04-19T09:56:38;6.50;;;2.73;;
15327;SDS011;7764;51.430;6.840;2023-04-19T09:59:05;9.37;;;2.70;;
15327;SDS011;7764;51.430;6.840;2023-04-19T10:01:34;12.03;;;2.93;;
15327;SDS011;7764;51.430;6.840;2023-04-19T10:04:03;10.00;;;3.10;;
15327;SDS011;7764;51.430;6.840;2023-04-19T10:06:31;5.67;;;3.23;;
15327;SDS011;7764;51.430;6.840;2023-04-19T10:09:01;6.50;;;3.50;;
15327;SDS011;7764;51.430;6.840;2023-04-19T10:11:30;7.10;;;3.57;;
15327;SDS011;7764;51.430;6.840;2023-04-19T10:14:02;9.43;;;3.00;;
15327;SDS011;7764;51.430;6.840;2023-04-19T10:16:30;8.40;;;2.90;;
15327;SDS011;7764;51.430;6.840;2023-04-19T10:18:58;7.10;;;2.90;;
15327;SDS011;7764;51.430;6.840;2023-04-19T10:21:26;7.83;;;3.80;;
15327;SDS011;7764;51.430;6.840;2023-04-19T10:23:54;6.20;;;3.30;;
15327;SDS011;7764;51.430;6.840;2023-04-19T10:26:21;6.60;;;3.43;;
15327;SDS011;7764;51.430;6.840;2023-04-19T10:28:48;8.63;;;4.00;;
15327;SDS011;7764;51.430;6.840;2023-04-19T10:31:18;7.27;;;3.73;;
15327;SDS011;7764;51.430;6.840;2023-04-19T10:33:47;9.70;;;4.57;;
15327;SDS011;7764;51.430;6.840;2023-04-19T10:36:16;8.83;;;4.27;;
15327;SDS011;7764;51.430;6.840;2023-04-19T10:38:43;9.43;;;4.47;;
15327;SDS011;7764;51.430;6.840;2023-04-19T10:41:12;9.80;;;4.07;;
15327;SDS011;7764;51.430;6.840;2023-04-19T10:43:40;6.17;;;3.80;;
15327;SDS011;7764;51.430;6.840;2023-04-19T10:46:12;6.27;;;4.23;;
15327;SDS011;7764;51.430;6.840;2023-04-19T10:48:49;9.43;;;4.43;;
15327;SDS011;7764;51.430;6.840;2023-04-19T10:51:20;9.67;;;4.73;;
15327;SDS011;7764;51.430;6.840;2023-04-19T10:53:49;7.23;;;4.47;;
15327;SDS011;7764;51.430;6.840;2023-04-19T10:56:22;10.13;;;4.60;;
15327;SDS011;7764;51.430;6.840;2023-04-19T10:59:35;6.20;;;3.67;;
15327;SDS011;7764;51.430;6.840;2023-04-19T11:02:05;9.80;;;4.30;;
15327;SDS011;7764;51.430;6.840;2023-04-19T11:05:00;10.37;;;4.77;;
15327;SDS011;7764;51.430;6.840;2023-04-19T11:07:35;8.90;;;4.83;;
15327;SDS011;7764;51.430;6.840;2023-04-19T11:10:06;10.07;;;4.50;;
15327;SDS011;7764;51.430;6.840;2023-04-19T11:12:34;7.50;;;4.63;;
15327;SDS011;7764;51.430;6.840;2023-04-19T11:15:01;8.67;;;4.50;;
15327;SDS011;7764;51.430;6.840;2023-04-19T11:17:30;7.20;;;4.50;;
15327;SDS011;7764;51.430;6.840;2023-04-19T11:19:58;7.30;;;4.17;;
15327;SDS011;7764;51.430;6.840;2023-04-19T11:22:31;9.17;;;4.60;;
15327;SDS011;7764;51.430;6.840;2023-04-19T11:25:05;10.13;;;4.47;;
15327;SDS011;7764;51.430;6.840;2023-04-19T11:27:34;9.43;;;4.37;;
15327;SDS011;7764;51.430;6.840;2023-04-19T11:30:02;13.40;;;6.33;;
15327;SDS011;7764;51.430;6.840;2023-04-19T11:32:31;13.60;;;7.97;;
15327;SDS011;7764;51.430;6.840;2023-04-19T11:35:02;9.37;;;4.97;;
15327;SDS011;7764;51.430;6.840;2023-04-19T11:37:31;7.97;;;4.67;;
15327;SDS011;7764;51.430;6.840;2023-04-19T11:39:58;11.20;;;4.80;;
15327;SDS011;7764;51.430;6.840;2023-04-19T11:42:25;9.47;;;4.30;;
15327;SDS011;7764;51.430;6.840;2023-04-19T11:44:53;7.30;;;3.80;;
15327;SDS011;7764;51.430;6.840;2023-04-19T11:47:21;6.57;;;3.93;;
15327;SDS011;7764;51.430;6.840;2023-04-19T11:49:50;7.80;;;3.90;;
15327;SDS011;7764;51.430;6.840;2023-04-19T11:52:20;7.07;;;4.23;;
15327;SDS011;7764;51.430;6.840;2023-04-19T11:54:49;7.33;;;4.37;;
15327;SDS011;7764;51.430;6.840;2023-04-19T11:57:25;20.80;;;6.03;;
15327;SDS011;7764;51.430;6.840;2023-04-19T12:00:03;9.20;;;4.60;;
15327;SDS011;7764;51.430;6.840;2023-04-19T12:02:36;8.43;;;4.40;;
15327;SDS011;7764;51.430;6.840;2023-04-19T12:05:09;8.93;;;4.17;;
15327;SDS011;7764;51.430;6.840;2023-04-19T12:10:23;9.07;;;4.57;;
15327;SDS011;7764;51.430;6.840;2023-04-19T12:12:50;9.60;;;4.60;;
15327;SDS011;7764;51.430;6.840;2023-04-19T12:15:17;7.30;;;4.57;;
15327;SDS011;7764;51.430;6.840;2023-04-19T12:20:35;10.30;;;4.83;;
15327;SDS011;7764;51.430;6.840;2023-04-19T12:23:04;9.60;;;4.73;;
15327;SDS011;7764;51.430;6.840;2023-04-19T12:25:35;9.60;;;5.10;;
15327;SDS011;7764;51.430;6.840;2023-04-19T12:28:02;10.00;;;5.23;;
15327;SDS011;7764;51.430;6.840;2023-04-19T12:30:29;7.73;;;4.20;;
15327;SDS011;7764;51.430;6.840;2023-04-19T12:32:57;8.43;;;4.77;;
15327;SDS011;7764;51.430;6.840;2023-04-19T12:35:24;8.70;;;4.97;;
15327;SDS011;7764;51.430;6.840;2023-04-19T12:37:54;7.27;;;4.93;;
15327;SDS011;7764;51.430;6.840;2023-04-19T12:40:22;10.00;;;4.97;;
15327;SDS011;7764;51.430;6.840;2023-04-19T12:42:50;8.00;;;4.57;;
15327;SDS011;7764;51.430;6.840;2023-04-19T12:45:17;16.47;;;5.57;;
15327;SDS011;7764;51.430;6.840;2023-04-19T12:47:45;9.50;;;5.20;;
15327;SDS011;7764;51.430;6.840;2023-04-19T12:50:13;6.93;;;4.50;;
15327;SDS011;7764;51.430;6.840;2023-04-19T12:52:41;7.73;;;4.63;;
15327;SDS011;7764;51.430;6.840;2023-04-19T12:55:09;9.90;;;5.07;;
15327;SDS011;7764;51.430;6.840;2023-04-19T12:57:36;9.27;;;4.97;;
15327;SDS011;7764;51.430;6.840;2023-04-19T13:00:04;9.63;;;5.23;;
15327;SDS011;7764;51.430;6.840;2023-04-19T13:02:33;7.50;;;4.77;;
15327;SDS011;7764;51.430;6.840;2023-04-19T13:05:00;9.10;;;5.07;;
15327;SDS011;7764;51.430;6.840;2023-04-19T13:07:28;9.40;;;5.07;;
15327;SDS011;7764;51.430;6.840;2023-04-19T13:09:55;7.13;;;4.70;;
15327;SDS011;7764;51.430;6.840;2023-04-19T13:12:23;7.97;;;4.60;;
15327;SDS011;7764;51.430;6.840;2023-04-19T13:14:50;8.87;;;4.67;;
15327;SDS011;7764;51.430;6.840;2023-04-19T13:17:17;7.33;;;4.63;;
15327;SDS011;7764;51.430;6.840;2023-04-19T13:19:44;7.63;;;5.10;;
15327;SDS011;7764;51.430;6.840;2023-04-19T13:22:11;9.67;;;4.37;;
15327;SDS011;7764;51.430;6.840;2023-04-19T13:24:38;9.80;;;5.00;;
15327;SDS011;7764;51.430;6.840;2023-04-19T13:27:05;7.23;;;4.23;;
15327;SDS011;7764;51.430;6.840;2023-04-19T13:29:33;8.80;;;5.10;;
15327;SDS011;7764;51.430;6.840;2023-04-19T13:32:00;8.47;;;4.67;;
15327;SDS011;7764;51.430;6.840;2023-04-19T13:34:27;8.77;;;5.00;;
15327;SDS011;7764;51.430;6.840;2023-04-19T13:36:54;8.77;;;5.13;;
15327;SDS011;7764;51.430;6.840;2023-04-19T13:39:22;7.70;;;4.70;;
15327;SDS011;7764;51.430;6.840;2023-04-19T13:41:49;7.27;;;4.50;;
15327;SDS011;7764;51.430;6.840;2023-04-19T13:44:16;6.33;;;4.60;;
15327;SDS011;7764;51.430;6.840;2023-04-19T13:46:44;9.37;;;4.80;;
15327;SDS011;7764;51.430;6.840;2023-04-19T13:49:11;8.57;;;4.97;;
15327;SDS011;7764;51.430;6.840;2023-04-19T13:51:40;5.47;;;3.97;;
15327;SDS011;7764;51.430;6.840;2023-04-19T13:54:07;8.17;;;4.50;;
15327;SDS011;7764;51.430;6.840;2023-04-19T13:56:34;8.93;;;4.70;;
15327;SDS011;7764;51.430;6.840;2023-04-19T13:59:01;10.40;;;5.13;;
15327;SDS011;7764;51.430;6.840;2023-04-19T14:01:28;10.53;;;4.50;;
15327;SDS011;7764;51.430;6.840;2023-04-19T14:03:56;9.83;;;4.70;;
15327;SDS011;7764;51.430;6.840;2023-04-19T14:06:23;8.33;;;4.60;;
15327;SDS011;7764;51.430;6.840;2023-04-19T14:08:50;8.20;;;4.40;;
15327;SDS011;7764;51.430;6.840;2023-04-19T14:11:17;8.00;;;4.43;;
15327;SDS011;7764;51.430;6.840;2023-04-19T14:13:44;11.00;;;4.97;;
15327;SDS011;7764;51.430;6.840;2023-04-19T14:16:12;9.70;;;4.60;;
15327;SDS011;7764;51.430;6.840;2023-04-19T14:18:39;10.73;;;4.03;;
15327;SDS011;7764;51.430;6.840;2023-04-19T14:21:08;7.00;;;3.83;;
15327;SDS011;7764;51.430;6.840;2023-04-19T14:23:35;6.83;;;3.90;;
15327;SDS011;7764;51.430;6.840;2023-04-19T14:26:02;7.57;;;4.17;;
15327;SDS011;7764;51.430;6.840;2023-04-19T14:28:29;8.63;;;4.50;;
15327;SDS011;7764;51.430;6.840;2023-04-19T14:30:56;8.30;;;4.40;;
15327;SDS011;7764;51.430;6.840;2023-04-19T14:33:22;15.10;;;4.20;;
15327;SDS011;7764;51.430;6.840;2023-04-19T14:35:50;9.10;;;4.23;;
15327;SDS011;7764;51.430;6.840;2023-04-19T14:38:18;7.30;;;4.10;;
15327;SDS011;7764;51.430;6.840;2023-04-19T14:40:45;7.90;;;4.00;;
15327;SDS011;7764;51.430;6.840;2023-04-19T14:43:13;7.90;;;4.23;;
15327;SDS011;7764;51.430;6.840;2023-04-19T14:45:40;6.80;;;4.13;;
15327;SDS011;7764;51.430;6.840;2023-04-19T14:48:07;7.03;;;4.00;;
15327;SDS011;7764;51.430;6.840;2023-04-19T14:50:34;9.57;;;5.13;;
15327;SDS011;7764;51.430;6.840;2023-04-19T14:53:01;7.63;;;4.00;;
15327;SDS011;7764;51.430;6.840;2023-04-19T14:55:29;7.10;;;4.50;;
15327;SDS011;7764;51.430;6.840;2023-04-19T14:57:56;8.60;;;4.13;;